createdAt,value
2019-04-30T00:01:20.371Z,4.50
2019-04-30T00:04:01.502Z,5.93
2019-04-30T00:06:34.659Z,9.30
2019-04-30T00:09:00.305Z,7.07
2019-04-30T00:11:28.871Z,4.97
2019-04-30T00:13:58.964Z,7.83
2019-04-30T00:16:31.079Z,8.70
2019-04-30T00:19:00.742Z,7.37
2019-04-30T00:21:28.031Z,11.37
2019-04-30T00:24:00.906Z,8.90
2019-04-30T00:26:26.677Z,7.77
2019-04-30T00:28:55.471Z,5.83
2019-04-30T00:31:27.375Z,6.43
2019-04-30T00:33:57.766Z,7.67
2019-04-30T00:36:29.040Z,8.60
2019-04-30T00:38:54.892Z,10.00
2019-04-30T00:41:23.377Z,5.97
2019-04-30T00:43:51.855Z,9.93
2019-04-30T00:46:24.899Z,6.70
2019-04-30T00:48:50.720Z,6.77
2019-04-30T00:51:21.365Z,8.17
2019-04-30T00:53:51.174Z,10.20
2019-04-30T00:56:23.908Z,6.33
2019-04-30T00:58:50.289Z,9.70
2019-04-30T01:01:43.558Z,9.10
2019-04-30T01:04:24.663Z,9.30
2019-04-30T01:06:53.344Z,8.37
2019-04-30T01:09:21.806Z,10.37
2019-04-30T01:11:50.280Z,5.63
2019-04-30T01:14:18.967Z,10.13
2019-04-30T01:16:49.232Z,9.53
2019-04-30T01:19:29.548Z,9.37
2019-04-30T01:21:49.163Z,6.23
2019-04-30T01:24:19.000Z,7.03
2019-04-30T01:26:48.612Z,9.23
2019-04-30T01:29:19.236Z,8.30
2019-04-30T01:31:48.809Z,6.20
2019-04-30T01:34:19.437Z,7.00
2019-04-30T01:36:52.111Z,10.87
2019-04-30T01:39:19.548Z,7.67
2019-04-30T01:41:48.785Z,5.80
2019-04-30T01:44:17.283Z,6.43
2019-04-30T01:46:48.322Z,7.80
2019-04-30T01:49:15.988Z,5.93
2019-04-30T01:51:44.464Z,7.53
2019-04-30T01:54:13.785Z,9.10
2019-04-30T01:57:01.160Z,7.33
2019-04-30T01:59:48.687Z,7.40
2019-04-30T02:02:18.537Z,7.73
2019-04-30T02:04:49.118Z,9.10
2019-04-30T02:07:18.996Z,6.23
2019-04-30T02:09:48.896Z,7.20
2019-04-30T02:12:21.670Z,7.17
2019-04-30T02:14:49.434Z,7.63
2019-04-30T02:17:19.268Z,7.37
2019-04-30T02:19:55.475Z,7.37
2019-04-30T02:22:18.922Z,7.20
2019-04-30T02:24:48.603Z,5.77
2019-04-30T02:27:19.177Z,8.67
2019-04-30T02:29:49.412Z,10.37
2019-04-30T02:32:20.563Z,6.57
2019-04-30T02:34:54.206Z,6.77
2019-04-30T02:37:25.936Z,6.93
2019-04-30T02:39:54.399Z,8.10
2019-04-30T02:42:22.864Z,9.07
2019-04-30T02:44:51.393Z,9.87
2019-04-30T02:47:20.422Z,7.97
2019-04-30T02:49:50.054Z,9.63
2019-04-30T02:52:19.657Z,9.63
2019-04-30T02:54:49.963Z,9.23
2019-04-30T02:57:22.951Z,10.13
2019-04-30T03:00:05.627Z,7.40
2019-04-30T03:02:34.290Z,15.20
2019-04-30T03:05:02.820Z,8.67
2019-04-30T03:07:31.258Z,14.93
2019-04-30T03:10:00.163Z,8.90
2019-04-30T03:12:33.116Z,12.33
2019-04-30T03:15:00.415Z,9.73
2019-04-30T03:17:50.728Z,10.13
2019-04-30T03:20:44.605Z,15.93
2019-04-30T03:23:13.229Z,17.43
2019-04-30T03:25:41.902Z,13.37
2019-04-30T03:28:10.604Z,13.13
2019-04-30T03:30:41.935Z,21.00
2019-04-30T03:33:12.876Z,18.50
2019-04-30T03:35:46.683Z,23.33
2019-04-30T03:38:10.171Z,16.90
2019-04-30T03:40:40.439Z,21.23
2019-04-30T03:43:10.334Z,18.80
2019-04-30T03:45:40.239Z,15.23
2019-04-30T03:48:10.171Z,16.10
2019-04-30T03:50:50.191Z,17.70
2019-04-30T03:53:10.466Z,15.53
2019-04-30T03:55:40.059Z,12.93
2019-04-30T03:58:09.296Z,14.33
2019-04-30T04:01:00.161Z,15.23
2019-04-30T04:03:29.696Z,15.67
2019-04-30T04:06:21.615Z,18.93
2019-04-30T04:09:05.767Z,14.37
2019-04-30T04:11:39.657Z,16.83
2019-04-30T04:14:09.330Z,15.33
2019-04-30T04:16:40.567Z,16.37
2019-04-30T04:19:09.638Z,18.40
2019-04-30T04:21:39.295Z,18.83
2019-04-30T04:24:10.412Z,16.07
2019-04-30T04:26:43.312Z,17.07
2019-04-30T04:29:12.057Z,18.27
2019-04-30T04:31:39.545Z,18.50
2019-04-30T04:34:09.342Z,18.43
2019-04-30T04:36:39.993Z,15.93
2019-04-30T04:39:09.802Z,17.40
2019-04-30T04:41:39.881Z,17.87
2019-04-30T04:44:10.004Z,18.30
2019-04-30T04:46:40.219Z,16.73
2019-04-30T04:49:09.087Z,20.63
2019-04-30T04:51:41.185Z,19.10
2019-04-30T04:54:10.407Z,19.77
2019-04-30T04:56:40.000Z,21.10
2019-04-30T04:59:10.264Z,18.23
2019-04-30T05:01:38.917Z,22.67
2019-04-30T05:04:11.452Z,27.23
2019-04-30T05:06:39.504Z,25.60
2019-04-30T05:09:09.731Z,27.60
2019-04-30T05:11:39.561Z,22.47
2019-04-30T05:14:08.394Z,34.40
2019-04-30T05:16:38.902Z,24.30
2019-04-30T05:19:08.889Z,34.20
2019-04-30T05:21:42.677Z,28.53
2019-04-30T05:24:09.099Z,29.47
2019-04-30T05:26:38.682Z,30.73
2019-04-30T05:29:07.188Z,48.27
2019-04-30T05:31:35.767Z,27.87
2019-04-30T05:34:06.379Z,23.30
2019-04-30T05:36:34.612Z,24.43
2019-04-30T05:39:03.427Z,27.90
2019-04-30T05:41:31.930Z,38.13
2019-04-30T05:44:00.431Z,27.67
2019-04-30T05:46:29.818Z,24.23
2019-04-30T05:48:59.429Z,31.33
2019-04-30T05:51:28.931Z,32.33
2019-04-30T05:53:59.276Z,28.00
2019-04-30T05:56:30.233Z,33.57
2019-04-30T05:58:59.322Z,38.03
2019-04-30T06:01:29.517Z,30.70
2019-04-30T06:03:59.489Z,35.73
2019-04-30T06:06:29.017Z,32.10
2019-04-30T06:09:14.964Z,26.47
2019-04-30T06:11:59.113Z,33.53
2019-04-30T06:14:48.022Z,39.67
2019-04-30T06:17:10.141Z,37.67
2019-04-30T06:19:39.187Z,35.10
2019-04-30T06:22:10.507Z,38.33
2019-04-30T06:24:39.524Z,38.17
2019-04-30T06:27:10.592Z,35.10
2019-04-30T06:29:39.095Z,41.47
2019-04-30T06:32:08.652Z,36.83
2019-04-30T06:34:39.533Z,37.03
2019-04-30T06:37:09.489Z,40.23
2019-04-30T06:39:38.603Z,33.97
2019-04-30T06:42:12.460Z,42.57
2019-04-30T06:44:41.622Z,44.77
2019-04-30T06:47:09.070Z,37.17
2019-04-30T06:49:39.252Z,41.53
2019-04-30T06:52:18.213Z,36.13
2019-04-30T06:54:39.687Z,41.93
2019-04-30T06:57:09.684Z,42.23
2019-04-30T06:59:39.628Z,43.47
2019-04-30T07:02:09.122Z,40.77
2019-04-30T07:04:40.006Z,47.07
2019-04-30T07:07:09.136Z,36.70
2019-04-30T07:09:53.176Z,47.07
2019-04-30T07:12:35.734Z,38.80
2019-04-30T07:15:04.507Z,41.43
2019-04-30T07:17:33.241Z,43.57
2019-04-30T07:20:01.728Z,35.90
2019-04-30T07:22:40.206Z,46.37
2019-04-30T07:25:00.404Z,38.37
2019-04-30T07:27:30.179Z,37.33
2019-04-30T07:29:59.683Z,30.03
2019-04-30T07:32:28.827Z,30.77
2019-04-30T07:34:59.293Z,31.60
2019-04-30T07:37:29.231Z,29.07
2019-04-30T07:39:58.945Z,27.03
2019-04-30T07:42:29.488Z,27.90
2019-04-30T07:45:00.448Z,34.83
2019-04-30T07:47:29.549Z,24.40
2019-04-30T07:50:00.726Z,24.70
2019-04-30T07:52:33.314Z,25.00
2019-04-30T07:55:00.671Z,26.20
2019-04-30T07:57:29.303Z,25.93
2019-04-30T08:00:00.563Z,23.40
2019-04-30T08:02:36.949Z,21.90
2019-04-30T08:05:06.708Z,20.80
2019-04-30T08:07:35.229Z,21.30
2019-04-30T08:10:04.627Z,20.50
2019-04-30T08:12:36.358Z,21.27
2019-04-30T08:15:03.447Z,25.50
2019-04-30T08:17:31.901Z,19.47
2019-04-30T08:20:00.375Z,17.80
2019-04-30T08:22:29.729Z,22.07
2019-04-30T08:24:58.754Z,17.60
2019-04-30T08:27:29.454Z,21.50
2019-04-30T08:29:59.211Z,18.20
2019-04-30T08:32:28.947Z,17.33
2019-04-30T08:35:00.976Z,22.20
2019-04-30T08:37:28.854Z,22.33
2019-04-30T08:39:59.792Z,21.00
2019-04-30T08:42:31.776Z,12.43
2019-04-30T08:44:58.588Z,20.27
2019-04-30T08:47:29.150Z,19.20
2019-04-30T08:50:01.598Z,15.70
2019-04-30T08:52:27.638Z,16.60
2019-04-30T08:54:56.156Z,17.47
2019-04-30T08:57:24.912Z,19.20
2019-04-30T08:59:53.580Z,20.70
2019-04-30T09:02:22.064Z,18.17
2019-04-30T09:04:53.368Z,19.20
2019-04-30T09:07:21.867Z,20.07
2019-04-30T09:09:50.332Z,20.83
2019-04-30T09:12:19.578Z,18.80
2019-04-30T09:14:49.107Z,20.07
2019-04-30T09:17:19.695Z,17.10
2019-04-30T09:19:49.011Z,17.90
2019-04-30T09:22:19.408Z,18.10
2019-04-30T09:24:49.736Z,20.60
2019-04-30T09:27:19.524Z,16.80
2019-04-30T09:29:49.198Z,16.40
2019-04-30T09:32:19.364Z,17.60
2019-04-30T09:34:48.808Z,21.83
2019-04-30T09:37:18.666Z,17.47
2019-04-30T09:39:49.256Z,19.10
2019-04-30T09:42:19.443Z,19.83
2019-04-30T09:44:49.215Z,18.73
2019-04-30T09:47:19.870Z,26.97
2019-04-30T09:49:49.395Z,16.90
2019-04-30T09:52:19.119Z,17.93
2019-04-30T09:54:49.995Z,16.10
2019-04-30T09:57:19.301Z,20.37
2019-04-30T09:59:48.647Z,22.37
2019-04-30T10:02:19.088Z,17.93
2019-04-30T10:04:47.767Z,22.70
2019-04-30T10:07:16.550Z,22.30
2019-04-30T10:09:45.377Z,24.53
2019-04-30T10:12:14.890Z,20.20
2019-04-30T10:14:43.486Z,27.20
2019-04-30T10:17:19.301Z,19.50
2019-04-30T10:19:49.210Z,23.03
2019-04-30T10:22:17.968Z,20.83
2019-04-30T10:24:46.446Z,17.93
2019-04-30T10:27:15.058Z,21.93
2019-04-30T10:29:43.505Z,18.93
2019-04-30T10:32:11.967Z,19.17
2019-04-30T10:34:40.899Z,22.57
2019-04-30T10:37:09.947Z,21.43
2019-04-30T10:39:39.027Z,21.93
2019-04-30T10:42:07.585Z,21.23
2019-04-30T10:44:36.077Z,24.27
2019-04-30T10:47:04.653Z,21.27
2019-04-30T10:49:33.169Z,17.70
2019-04-30T10:52:01.724Z,15.80
2019-04-30T10:54:30.256Z,20.20
2019-04-30T10:56:59.272Z,22.90
2019-04-30T10:59:27.750Z,20.63
2019-04-30T11:01:56.241Z,25.10
2019-04-30T11:04:24.850Z,22.67
2019-04-30T11:06:53.319Z,23.03
2019-04-30T11:09:21.817Z,23.00
2019-04-30T11:11:50.289Z,20.23
2019-04-30T11:14:18.916Z,19.60
2019-04-30T11:16:51.247Z,19.43
2019-04-30T11:19:19.239Z,20.97
2019-04-30T11:21:48.085Z,18.57
2019-04-30T11:24:17.565Z,21.93
2019-04-30T11:26:50.195Z,17.83
2019-04-30T11:29:17.939Z,20.03
2019-04-30T11:31:52.548Z,17.90
2019-04-30T11:34:21.264Z,21.23
2019-04-30T11:36:49.737Z,17.97
2019-04-30T11:39:21.525Z,21.90
2019-04-30T11:41:50.101Z,16.43
2019-04-30T11:44:30.367Z,19.60
2019-04-30T11:47:16.480Z,20.00
2019-04-30T11:49:45.189Z,18.60
2019-04-30T11:52:13.646Z,19.03
2019-04-30T11:54:49.012Z,21.50
2019-04-30T11:57:13.761Z,23.07
2019-04-30T11:59:42.682Z,22.30
2019-04-30T12:02:22.107Z,20.50
2019-04-30T12:04:50.564Z,20.27
2019-04-30T12:07:25.808Z,20.20
2019-04-30T12:10:11.980Z,20.93
2019-04-30T12:12:40.460Z,24.50
2019-04-30T12:15:09.381Z,22.27
2019-04-30T12:17:37.871Z,21.70
2019-04-30T12:20:08.075Z,23.80
2019-04-30T12:22:36.555Z,25.57
2019-04-30T12:25:05.608Z,26.33
2019-04-30T12:27:34.051Z,23.83
2019-04-30T12:30:02.556Z,26.83
2019-04-30T12:32:31.004Z,22.10
2019-04-30T12:34:59.542Z,25.57
2019-04-30T12:37:29.057Z,26.50
2019-04-30T12:39:59.374Z,29.40
2019-04-30T12:42:28.738Z,29.20
2019-04-30T12:44:59.428Z,31.63
2019-04-30T12:47:29.660Z,29.20
2019-04-30T12:50:04.707Z,29.83
2019-04-30T12:52:41.027Z,28.07
2019-04-30T12:55:22.650Z,26.17
2019-04-30T12:57:58.705Z,28.93
2019-04-30T13:00:23.216Z,29.00
2019-04-30T13:02:51.786Z,26.13
2019-04-30T13:05:20.262Z,29.13
2019-04-30T13:07:50.111Z,28.97
2019-04-30T13:10:19.516Z,28.37
2019-04-30T13:12:48.615Z,29.50
2019-04-30T13:15:17.424Z,27.30
2019-04-30T13:17:46.138Z,30.63
2019-04-30T13:20:20.875Z,26.87
2019-04-30T13:22:45.471Z,29.13
2019-04-30T13:25:14.223Z,26.93
2019-04-30T13:27:46.142Z,36.40
2019-04-30T13:30:18.599Z,29.87
2019-04-30T13:32:54.051Z,28.87
2019-04-30T13:35:22.646Z,28.37
2019-04-30T13:37:59.354Z,29.63
2019-04-30T13:40:45.567Z,28.87
2019-04-30T13:43:14.499Z,29.67
2019-04-30T13:45:42.989Z,30.20
2019-04-30T13:48:11.501Z,34.87
2019-04-30T13:50:39.950Z,37.77
2019-04-30T13:53:08.974Z,40.93
2019-04-30T13:55:45.691Z,33.10
2019-04-30T13:58:07.755Z,33.53
2019-04-30T14:00:36.221Z,31.60
2019-04-30T14:03:12.062Z,31.63
2019-04-30T14:05:40.754Z,33.10
2019-04-30T14:08:28.846Z,30.20
2019-04-30T14:10:59.068Z,31.27
2019-04-30T14:13:27.798Z,38.57
2019-04-30T14:15:56.361Z,31.93
2019-04-30T14:18:30.952Z,31.53
2019-04-30T14:20:55.026Z,28.90
2019-04-30T14:23:23.550Z,31.50
2019-04-30T14:25:56.779Z,30.37
2019-04-30T14:28:22.690Z,31.00
2019-04-30T14:30:51.407Z,33.07
2019-04-30T14:33:26.367Z,29.03
2019-04-30T14:35:50.581Z,32.07
2019-04-30T14:38:19.160Z,35.87
2019-04-30T14:40:50.418Z,34.80
2019-04-30T14:43:52.677Z,34.93
2019-04-30T14:46:40.985Z,33.27
2019-04-30T14:49:32.578Z,33.30
2019-04-30T14:52:01.590Z,30.93
2019-04-30T14:54:52.095Z,31.70
2019-04-30T14:57:42.831Z,28.13
2019-04-30T15:00:32.534Z,32.47
2019-04-30T15:03:06.716Z,32.87
2019-04-30T15:05:40.529Z,33.33
2019-04-30T15:08:05.968Z,33.17
2019-04-30T15:10:34.454Z,33.67
2019-04-30T15:13:02.965Z,33.43
2019-04-30T15:15:31.844Z,27.70
2019-04-30T15:18:00.351Z,31.93
2019-04-30T15:20:29.634Z,30.27
2019-04-30T15:23:21.867Z,33.50
2019-04-30T15:25:50.624Z,29.30
2019-04-30T15:28:19.329Z,29.60
2019-04-30T15:30:48.901Z,32.17
2019-04-30T15:33:27.607Z,37.23
2019-04-30T15:35:56.094Z,32.20
2019-04-30T15:38:43.611Z,34.07
2019-04-30T15:41:12.081Z,31.73
2019-04-30T15:43:40.663Z,29.70
2019-04-30T15:46:09.403Z,34.27
2019-04-30T15:48:37.867Z,34.03
2019-04-30T15:51:06.342Z,33.70
2019-04-30T15:53:34.971Z,35.93
2019-04-30T15:56:03.600Z,36.13
2019-04-30T15:58:33.955Z,35.87
2019-04-30T16:01:03.643Z,32.53
2019-04-30T16:03:33.755Z,35.33
2019-04-30T16:06:03.547Z,34.37
2019-04-30T16:08:40.406Z,35.33
2019-04-30T16:11:26.479Z,39.53
2019-04-30T16:14:20.160Z,33.80
2019-04-30T16:16:56.383Z,36.17
2019-04-30T16:19:24.961Z,35.63
2019-04-30T16:21:53.484Z,36.07
2019-04-30T16:24:22.214Z,36.33
2019-04-30T16:26:52.799Z,35.67
2019-04-30T16:29:21.202Z,35.47
2019-04-30T16:31:49.692Z,28.33
2019-04-30T16:34:18.347Z,33.83
2019-04-30T16:36:46.816Z,36.43
2019-04-30T16:39:15.355Z,36.67
2019-04-30T16:41:44.094Z,33.67
2019-04-30T16:44:12.631Z,37.27
2019-04-30T16:46:41.130Z,37.83
2019-04-30T16:49:11.128Z,34.83
2019-04-30T16:51:40.514Z,36.83
2019-04-30T16:54:09.000Z,38.37
2019-04-30T16:56:38.668Z,42.00
2019-04-30T16:59:09.623Z,39.03
2019-04-30T17:01:38.150Z,38.00
2019-04-30T17:04:29.093Z,38.63
2019-04-30T17:07:18.649Z,41.67
2019-04-30T17:09:54.418Z,30.40
2019-04-30T17:12:38.749Z,37.37
2019-04-30T17:15:15.940Z,43.87
2019-04-30T17:17:44.410Z,36.77
2019-04-30T17:20:13.560Z,39.17
2019-04-30T17:22:42.029Z,33.33
2019-04-30T17:25:10.492Z,45.53
2019-04-30T17:27:39.357Z,43.33
2019-04-30T17:30:09.325Z,43.67
2019-04-30T17:32:39.475Z,41.93
2019-04-30T17:35:09.040Z,44.27
2019-04-30T17:37:37.589Z,42.27
2019-04-30T17:40:06.118Z,47.10
2019-04-30T17:42:34.599Z,53.40
2019-04-30T17:45:03.353Z,45.00
2019-04-30T17:47:31.851Z,47.60
2019-04-30T17:50:00.507Z,41.63
2019-04-30T17:52:29.845Z,45.37
2019-04-30T17:54:59.527Z,45.67
2019-04-30T17:57:32.200Z,42.97
2019-04-30T17:59:59.145Z,38.80
2019-04-30T18:02:29.450Z,41.73
2019-04-30T18:04:58.262Z,44.70
2019-04-30T18:07:27.306Z,41.03
2019-04-30T18:09:55.888Z,40.10
2019-04-30T18:12:24.372Z,38.83
2019-04-30T18:14:52.936Z,42.00
2019-04-30T18:17:22.209Z,35.53
2019-04-30T18:20:10.980Z,35.47
2019-04-30T18:22:56.464Z,32.83
2019-04-30T18:25:38.981Z,36.37
2019-04-30T18:28:09.136Z,36.83
2019-04-30T18:30:39.167Z,33.43
2019-04-30T18:33:09.694Z,38.70
2019-04-30T18:35:38.812Z,35.10
2019-04-30T18:38:07.383Z,40.00
2019-04-30T18:40:35.824Z,34.87
2019-04-30T18:43:04.322Z,33.57
2019-04-30T18:45:32.797Z,34.50
2019-04-30T18:48:01.829Z,32.27
2019-04-30T18:50:30.490Z,35.50
2019-04-30T18:53:00.735Z,49.00
2019-04-30T18:55:29.224Z,35.07
2019-04-30T18:58:01.257Z,38.87
2019-04-30T19:00:34.544Z,33.90
2019-04-30T19:03:03.039Z,35.10
2019-04-30T19:05:31.587Z,32.47
2019-04-30T19:08:05.334Z,38.60
2019-04-30T19:10:52.104Z,40.60
2019-04-30T19:13:32.635Z,37.13
2019-04-30T19:16:29.225Z,43.23
2019-04-30T19:19:06.982Z,42.70
2019-04-30T19:21:35.931Z,39.77
2019-04-30T19:24:04.565Z,45.33
2019-04-30T19:26:33.205Z,42.00
2019-04-30T19:29:01.975Z,41.63
2019-04-30T19:31:30.465Z,37.67
2019-04-30T19:33:59.161Z,45.60
2019-04-30T19:36:35.089Z,43.00
2019-04-30T19:38:59.773Z,43.40
2019-04-30T19:41:28.760Z,43.47
2019-04-30T19:43:57.483Z,36.17
2019-04-30T19:46:25.941Z,40.57
2019-04-30T19:48:54.409Z,41.17
2019-04-30T19:51:22.916Z,44.27
2019-04-30T19:53:51.747Z,42.63
2019-04-30T19:56:20.672Z,38.10
2019-04-30T19:59:01.792Z,39.33
2019-04-30T20:01:19.631Z,44.20
2019-04-30T20:03:48.236Z,41.07
2019-04-30T20:06:16.806Z,41.17
2019-04-30T20:08:45.284Z,42.53
2019-04-30T20:11:13.735Z,47.57
2019-04-30T20:13:42.775Z,43.70
2019-04-30T20:16:11.275Z,45.33
2019-04-30T20:18:39.879Z,51.70
2019-04-30T20:21:12.362Z,46.30
2019-04-30T20:23:41.045Z,41.17
2019-04-30T20:26:09.637Z,50.73
2019-04-30T20:28:41.699Z,51.43
2019-04-30T20:31:08.989Z,41.47
2019-04-30T20:33:38.971Z,53.90
2019-04-30T20:36:09.231Z,50.73
2019-04-30T20:39:02.710Z,47.90
2019-04-30T20:41:32.247Z,58.97
2019-04-30T20:44:00.888Z,60.43
2019-04-30T20:46:34.766Z,54.87
2019-04-30T20:48:59.921Z,76.60
2019-04-30T20:51:29.144Z,62.30
2019-04-30T20:53:59.228Z,68.90
2019-04-30T20:56:29.150Z,61.00
2019-04-30T20:59:02.588Z,60.03
2019-04-30T21:01:29.415Z,51.83
2019-04-30T21:03:57.944Z,58.57
2019-04-30T21:06:26.412Z,62.20
2019-04-30T21:08:55.308Z,63.20
2019-04-30T21:11:23.773Z,61.67
2019-04-30T21:13:52.263Z,66.70
2019-04-30T21:16:20.759Z,75.80
2019-04-30T21:18:49.251Z,75.40
2019-04-30T21:21:18.607Z,76.27
2019-04-30T21:23:49.167Z,73.50
2019-04-30T21:26:19.643Z,76.80
2019-04-30T21:28:49.485Z,78.30
2019-04-30T21:31:36.093Z,84.33
2019-04-30T21:34:12.710Z,82.87
2019-04-30T21:36:41.189Z,68.77
2019-04-30T21:39:09.891Z,75.03
2019-04-30T21:41:39.568Z,78.30
2019-04-30T21:44:08.066Z,74.90
2019-04-30T21:46:37.597Z,87.57
2019-04-30T21:49:08.854Z,78.33
2019-04-30T21:51:40.012Z,88.00
2019-04-30T21:54:07.873Z,87.40
2019-04-30T21:56:36.352Z,81.50
2019-04-30T21:59:04.896Z,71.03
2019-04-30T22:01:33.591Z,81.93
2019-04-30T22:04:02.042Z,69.60
2019-04-30T22:06:30.540Z,69.97
2019-04-30T22:08:59.184Z,83.33
2019-04-30T22:11:29.675Z,66.60
2019-04-30T22:13:58.123Z,69.00
2019-04-30T22:16:26.614Z,74.23
2019-04-30T22:18:55.074Z,63.03
2019-04-30T22:21:23.582Z,61.70
2019-04-30T22:23:52.103Z,56.63
2019-04-30T22:26:20.841Z,64.47
2019-04-30T22:28:49.546Z,71.03
2019-04-30T22:31:19.796Z,57.33
2019-04-30T22:33:49.095Z,60.90
2019-04-30T22:36:29.079Z,55.50
2019-04-30T22:39:29.979Z,57.03
2019-04-30T22:42:19.099Z,55.73
2019-04-30T22:44:47.635Z,60.90
2019-04-30T22:47:16.347Z,41.70
2019-04-30T22:49:44.857Z,44.83
2019-04-30T22:52:13.409Z,44.77
2019-04-30T22:54:42.120Z,37.30
2019-04-30T22:57:10.599Z,51.93
2019-04-30T22:59:49.509Z,59.57
2019-04-30T23:02:16.074Z,54.73
2019-04-30T23:04:45.869Z,53.37
2019-04-30T23:07:14.490Z,46.00
2019-04-30T23:09:43.289Z,58.63
2019-04-30T23:12:11.915Z,45.43
2019-04-30T23:14:40.671Z,45.93
2019-04-30T23:17:09.386Z,56.07
2019-04-30T23:19:37.878Z,49.13
2019-04-30T23:22:06.348Z,58.10
2019-04-30T23:24:34.823Z,46.83
2019-04-30T23:27:03.294Z,50.07
2019-04-30T23:29:31.829Z,56.53
2019-04-30T23:32:00.552Z,46.87
2019-04-30T23:34:29.134Z,48.03
2019-04-30T23:36:57.859Z,52.73
2019-04-30T23:39:26.330Z,53.87
2019-04-30T23:41:54.801Z,44.60
2019-04-30T23:44:23.267Z,52.00
2019-04-30T23:46:51.753Z,49.20
2019-04-30T23:49:20.212Z,47.83
2019-04-30T23:51:50.517Z,59.17
2019-04-30T23:54:19.149Z,47.63
2019-04-30T23:56:47.651Z,42.37
2019-04-30T23:59:16.114Z,45.53
